createdAt,value
2022-08-17T00:00:34.965Z,17.70
2022-08-17T00:03:14.475Z,17.70
2022-08-17T00:05:45.216Z,17.60
2022-08-17T00:08:14.742Z,17.60
2022-08-17T00:10:44.052Z,17.50
2022-08-17T00:13:15.902Z,17.50
2022-08-17T00:15:45.903Z,17.50
2022-08-17T00:18:58.300Z,17.50
2022-08-17T00:21:10.538Z,17.50
2022-08-17T00:23:47.757Z,17.50
2022-08-17T00:26:44.411Z,17.50
2022-08-17T00:29:06.491Z,17.60
2022-08-17T00:31:38.863Z,17.60
2022-08-17T00:34:09.174Z,17.70
2022-08-17T00:36:37.633Z,17.70
2022-08-17T00:39:05.994Z,17.80
2022-08-17T00:41:35.824Z,17.80
2022-08-17T00:44:05.460Z,17.90
2022-08-17T00:46:40.349Z,17.90
2022-08-17T00:49:10.039Z,18.00
2022-08-17T00:51:43.402Z,18.00
2022-08-17T00:54:15.084Z,18.10
2022-08-17T00:56:46.782Z,18.10
2022-08-17T00:59:18.729Z,18.20
2022-08-17T01:01:50.528Z,18.20
2022-08-17T01:04:21.049Z,18.20
2022-08-17T01:06:50.988Z,18.20
2022-08-17T01:09:20.064Z,18.20
2022-08-17T01:11:52.342Z,18.20
2022-08-17T01:14:21.494Z,18.20
2022-08-17T01:16:53.995Z,18.20
2022-08-17T01:19:25.940Z,18.10
2022-08-17T01:22:01.677Z,18.10
2022-08-17T01:24:33.802Z,18.00
2022-08-17T01:27:02.143Z,17.90
2022-08-17T01:29:32.265Z,17.80
2022-08-17T01:32:03.633Z,17.80
2022-08-17T01:34:43.704Z,17.70
2022-08-17T01:37:19.534Z,17.70
2022-08-17T01:39:53.558Z,17.70
2022-08-17T01:42:26.268Z,17.70
2022-08-17T01:44:58.900Z,17.80
2022-08-17T01:47:27.293Z,17.70
2022-08-17T01:49:57.995Z,17.80
2022-08-17T01:52:26.096Z,17.80
2022-08-17T01:54:56.498Z,17.80
2022-08-17T01:57:24.643Z,17.80
2022-08-17T01:59:52.805Z,17.80
2022-08-17T02:02:31.328Z,17.90
2022-08-17T02:05:00.379Z,17.90
2022-08-17T02:07:29.070Z,17.90
2022-08-17T02:09:58.597Z,18.00
2022-08-17T02:12:39.279Z,18.00
2022-08-17T02:15:10.281Z,18.10
2022-08-17T02:17:40.530Z,18.10
2022-08-17T02:20:11.311Z,18.10
2022-08-17T02:22:41.416Z,18.10
2022-08-17T02:25:14.330Z,18.00
2022-08-17T02:27:42.586Z,18.00
2022-08-17T02:31:01.256Z,18.00
2022-08-17T02:33:04.177Z,17.90
2022-08-17T02:35:34.486Z,17.90
2022-08-17T02:38:02.969Z,17.90
2022-08-17T02:40:36.483Z,17.90
2022-08-17T02:43:05.378Z,17.90
2022-08-17T02:45:33.545Z,17.90
2022-08-17T02:48:01.793Z,17.90
2022-08-17T02:50:30.105Z,17.90
2022-08-17T02:53:02.262Z,17.90
2022-08-17T02:55:34.476Z,17.90
2022-08-17T02:58:03.715Z,17.90
2022-08-17T03:00:35.071Z,17.90
2022-08-17T03:03:04.815Z,17.90
2022-08-17T03:05:35.318Z,17.80
2022-08-17T03:08:04.655Z,17.80
2022-08-17T03:10:34.457Z,17.70
2022-08-17T03:13:02.745Z,17.60
2022-08-17T03:15:34.630Z,17.50
2022-08-17T03:18:03.825Z,17.40
2022-08-17T03:20:33.871Z,17.40
2022-08-17T03:23:03.004Z,17.30
2022-08-17T03:25:34.612Z,17.30
2022-08-17T03:28:02.798Z,17.30
2022-08-17T03:30:31.004Z,17.30
2022-08-17T03:33:01.741Z,17.20
2022-08-17T03:35:32.140Z,17.20
2022-08-17T03:38:01.352Z,17.20
2022-08-17T03:40:34.594Z,17.20
2022-08-17T03:43:21.588Z,17.20
2022-08-17T03:46:28.422Z,17.20
2022-08-17T03:49:13.784Z,17.20
2022-08-17T03:51:59.210Z,17.30
2022-08-17T03:54:44.525Z,17.30
2022-08-17T03:57:13.214Z,17.30
2022-08-17T03:59:42.837Z,17.30
2022-08-17T04:02:17.418Z,17.30
2022-08-17T04:04:45.716Z,17.40
2022-08-17T04:07:13.932Z,17.40
2022-08-17T04:09:42.897Z,17.40
2022-08-17T04:12:10.959Z,17.40
2022-08-17T04:14:52.961Z,17.40
2022-08-17T04:17:24.987Z,17.50
2022-08-17T04:19:53.447Z,17.50
2022-08-17T04:22:32.765Z,17.50
2022-08-17T04:25:09.353Z,17.60
2022-08-17T04:27:37.896Z,17.70
2022-08-17T04:30:08.002Z,17.80
2022-08-17T04:32:59.307Z,17.90
2022-08-17T04:35:36.465Z,17.90
2022-08-17T04:38:04.662Z,17.90
2022-08-17T04:40:50.534Z,18.00
2022-08-17T04:43:20.928Z,18.00
2022-08-17T04:45:56.386Z,18.00
2022-08-17T04:48:36.185Z,18.00
2022-08-17T04:51:08.065Z,18.10
2022-08-17T04:53:36.240Z,18.10
2022-08-17T04:56:04.876Z,18.10
2022-08-17T04:58:32.935Z,18.20
2022-08-17T05:01:01.424Z,18.20
2022-08-17T05:03:31.155Z,18.20
2022-08-17T05:05:59.338Z,18.30
2022-08-17T05:08:27.674Z,18.30
2022-08-17T05:10:56.036Z,18.40
2022-08-17T05:13:26.754Z,18.30
2022-08-17T05:15:58.396Z,18.40
2022-08-17T05:18:27.347Z,18.50
2022-08-17T05:20:57.455Z,18.50
2022-08-17T05:23:31.422Z,18.50
2022-08-17T05:26:11.653Z,18.60
2022-08-17T05:28:57.123Z,18.60
2022-08-17T05:31:27.933Z,18.70
2022-08-17T05:33:56.096Z,18.80
2022-08-17T05:36:43.543Z,18.80
2022-08-17T05:39:16.948Z,18.90
2022-08-17T05:41:48.887Z,19.00
2022-08-17T05:44:17.583Z,19.00
2022-08-17T05:46:51.069Z,19.10
2022-08-17T05:49:23.793Z,19.10
2022-08-17T05:52:19.856Z,19.20
2022-08-17T05:55:09.031Z,19.10
2022-08-17T05:57:53.938Z,19.30
2022-08-17T06:00:30.776Z,19.30
2022-08-17T06:03:16.527Z,19.40
2022-08-17T06:06:06.205Z,19.50
2022-08-17T06:08:48.981Z,19.50
2022-08-17T06:11:28.277Z,19.60
2022-08-17T06:14:18.515Z,19.70
2022-08-17T06:16:49.963Z,19.70
2022-08-17T06:19:21.108Z,19.80
2022-08-17T06:21:52.332Z,19.90
2022-08-17T06:24:28.536Z,20.00
2022-08-17T06:27:02.864Z,20.10
2022-08-17T06:29:39.672Z,20.20
2022-08-17T06:32:12.650Z,20.30
2022-08-17T06:34:43.684Z,20.50
2022-08-17T06:37:31.107Z,20.60
2022-08-17T06:40:20.667Z,20.70
2022-08-17T06:43:08.736Z,20.80
2022-08-17T06:45:42.818Z,20.90
2022-08-17T06:48:15.608Z,21.00
2022-08-17T06:50:48.776Z,21.10
2022-08-17T06:53:23.351Z,21.20
2022-08-17T06:55:59.852Z,21.30
2022-08-17T06:58:31.343Z,21.50
2022-08-17T07:01:05.090Z,21.60
2022-08-17T07:03:37.953Z,21.70
2022-08-17T07:06:12.171Z,21.70
2022-08-17T07:08:50.424Z,21.80
2022-08-17T07:11:27.156Z,21.90
2022-08-17T07:14:16.958Z,21.90
2022-08-17T07:16:50.072Z,22.00
2022-08-17T07:19:22.471Z,22.20
2022-08-17T07:21:58.369Z,22.40
2022-08-17T07:24:35.492Z,22.50
2022-08-17T07:27:11.581Z,22.70
2022-08-17T07:29:43.977Z,22.90
2022-08-17T07:32:18.347Z,23.10
2022-08-17T07:35:02.956Z,23.20
2022-08-17T07:37:34.375Z,23.40
2022-08-17T07:40:18.212Z,23.50
2022-08-17T07:46:08.605Z,23.70
2022-08-17T07:48:39.103Z,23.80
2022-08-17T07:51:19.521Z,23.90
2022-08-17T07:53:47.858Z,24.00
2022-08-17T07:56:39.148Z,24.10
2022-08-17T07:59:09.774Z,24.20
2022-08-17T08:01:41.691Z,24.30
2022-08-17T08:07:28.600Z,24.70
2022-08-17T08:10:12.997Z,25.00
2022-08-17T08:12:43.032Z,25.20
2022-08-17T08:15:18.873Z,25.30
2022-08-17T08:17:52.939Z,25.50
2022-08-17T08:20:47.798Z,25.80
2022-08-17T08:23:26.574Z,26.10
2022-08-17T08:26:09.517Z,26.70
2022-08-17T08:28:46.723Z,27.30
2022-08-17T08:31:25.279Z,27.80
2022-08-17T08:34:09.497Z,28.20
2022-08-17T08:37:16.366Z,28.70
2022-08-17T08:39:58.096Z,29.20
2022-08-17T08:42:33.473Z,29.50
2022-08-17T08:45:12.892Z,29.60
2022-08-17T08:48:05.158Z,29.90
2022-08-17T08:50:43.800Z,30.30
2022-08-17T08:53:23.551Z,30.30
2022-08-17T08:55:56.526Z,30.30
2022-08-17T08:58:42.321Z,30.70
2022-08-17T09:01:21.873Z,31.00
2022-08-17T09:04:18.354Z,31.50
2022-08-17T09:06:59.193Z,31.70
2022-08-17T09:09:39.049Z,32.00
2022-08-17T09:12:14.035Z,32.50
2022-08-17T09:14:49.614Z,33.30
2022-08-17T09:17:22.396Z,33.70
2022-08-17T09:19:55.768Z,33.60
2022-08-17T09:22:33.511Z,33.00
2022-08-17T09:25:09.440Z,32.70
2022-08-17T09:27:51.723Z,33.20
2022-08-17T09:30:20.712Z,33.70
2022-08-17T09:32:57.343Z,34.30
2022-08-17T09:35:32.899Z,34.70
2022-08-17T09:38:20.662Z,35.00
2022-08-17T09:40:53.947Z,35.40
2022-08-17T09:43:33.279Z,35.60
2022-08-17T09:46:05.008Z,36.30
2022-08-17T09:48:40.088Z,36.80
2022-08-17T09:51:13.614Z,36.80
2022-08-17T09:53:44.855Z,36.00
2022-08-17T09:56:30.183Z,35.30
2022-08-17T09:59:16.873Z,34.40
2022-08-17T10:01:50.542Z,33.80
2022-08-17T10:04:40.947Z,33.00
2022-08-17T10:07:16.246Z,32.40
2022-08-17T10:09:56.491Z,31.80
2022-08-17T10:12:34.621Z,31.20
2022-08-17T10:15:17.432Z,30.70
2022-08-17T10:18:04.581Z,30.30
2022-08-17T10:20:38.151Z,30.00
2022-08-17T10:23:31.631Z,29.70
2022-08-17T10:26:15.357Z,29.30
2022-08-17T10:28:49.933Z,29.20
2022-08-17T10:31:39.710Z,29.00
2022-08-17T10:34:41.264Z,28.80
2022-08-17T10:37:31.102Z,28.70
2022-08-17T10:40:12.752Z,28.60
2022-08-17T10:42:50.180Z,28.60
2022-08-17T10:45:26.307Z,28.60
2022-08-17T10:48:04.652Z,28.60
2022-08-17T10:50:59.071Z,28.60
2022-08-17T10:53:57.149Z,28.60
2022-08-17T10:56:41.560Z,28.50
2022-08-17T10:59:31.271Z,28.50
2022-08-17T11:02:13.988Z,28.40
2022-08-17T11:04:57.298Z,28.40
2022-08-17T11:07:52.173Z,28.40
2022-08-17T11:10:42.133Z,28.30
2022-08-17T11:13:18.656Z,28.30
2022-08-17T11:16:02.430Z,28.40
2022-08-17T11:18:59.260Z,28.60
2022-08-17T11:22:02.832Z,28.70
2022-08-17T11:24:36.047Z,28.90
2022-08-17T11:27:12.328Z,28.90
2022-08-17T11:29:54.187Z,29.00
2022-08-17T11:32:37.681Z,29.00
2022-08-17T11:35:31.221Z,28.90
2022-08-17T11:38:16.439Z,28.70
2022-08-17T11:41:08.812Z,28.50
2022-08-17T11:44:02.071Z,28.30
2022-08-17T11:47:01.864Z,28.10
2022-08-17T11:50:01.808Z,27.90
2022-08-17T11:52:44.504Z,27.80
2022-08-17T11:55:52.338Z,27.70
2022-08-17T11:58:37.532Z,27.70
2022-08-17T12:01:06.889Z,27.60
2022-08-17T12:03:55.777Z,27.60
2022-08-17T12:06:50.106Z,27.60
2022-08-17T12:09:22.205Z,27.60
2022-08-17T12:12:12.818Z,27.60
2022-08-17T12:17:40.658Z,27.50
2022-08-17T12:20:15.019Z,27.40
2022-08-17T12:22:54.765Z,27.40
2022-08-17T12:25:32.845Z,27.40
2022-08-17T12:28:06.558Z,27.40
2022-08-17T12:30:37.494Z,27.30
2022-08-17T12:33:25.305Z,27.30
2022-08-17T12:36:00.002Z,27.20
2022-08-17T12:38:33.174Z,27.20
2022-08-17T12:41:23.447Z,27.20
2022-08-17T12:43:58.680Z,27.20
2022-08-17T12:46:26.795Z,27.20
2022-08-17T12:49:00.003Z,27.30
2022-08-17T12:51:29.429Z,27.50
2022-08-17T12:53:59.413Z,27.70
2022-08-17T12:56:29.948Z,27.80
2022-08-17T12:58:58.508Z,27.80
2022-08-17T13:01:27.756Z,27.80
2022-08-17T13:04:00.887Z,27.80
2022-08-17T13:06:32.171Z,27.70
2022-08-17T13:09:12.605Z,27.70
2022-08-17T13:11:49.194Z,27.60
2022-08-17T13:14:19.000Z,27.50
2022-08-17T13:16:53.584Z,27.40
2022-08-17T13:19:39.839Z,27.40
2022-08-17T13:22:13.067Z,27.30
2022-08-17T13:24:54.022Z,27.20
2022-08-17T13:27:24.040Z,27.10
2022-08-17T13:29:56.367Z,27.10
2022-08-17T13:32:36.120Z,26.90
2022-08-17T13:35:52.242Z,26.70
2022-08-17T13:38:41.102Z,26.60
2022-08-17T13:41:31.079Z,26.40
2022-08-17T13:43:59.234Z,26.30
2022-08-17T13:46:32.269Z,26.20
2022-08-17T13:49:03.147Z,26.10
2022-08-17T13:51:36.165Z,26.20
2022-08-17T13:54:20.076Z,26.30
2022-08-17T13:57:00.173Z,26.70
2022-08-17T13:59:54.707Z,27.10
2022-08-17T14:02:26.096Z,27.50
2022-08-17T14:04:57.231Z,27.70
2022-08-17T14:07:33.803Z,27.70
2022-08-17T14:10:05.857Z,27.70
2022-08-17T14:12:38.641Z,27.60
2022-08-17T14:15:08.841Z,27.80
2022-08-17T14:17:49.627Z,28.20
2022-08-17T14:20:20.423Z,28.90
2022-08-17T14:22:55.659Z,29.70
2022-08-17T14:25:27.459Z,30.30
2022-08-17T14:27:57.570Z,30.80
2022-08-17T14:30:30.047Z,31.10
2022-08-17T14:33:02.188Z,31.00
2022-08-17T14:35:30.943Z,30.60
2022-08-17T14:37:59.041Z,30.40
2022-08-17T14:40:27.464Z,30.20
2022-08-17T14:42:57.990Z,30.10
2022-08-17T14:45:27.401Z,30.00
2022-08-17T14:48:00.947Z,29.80
2022-08-17T14:50:29.106Z,29.60
2022-08-17T14:52:57.897Z,29.60
2022-08-17T14:55:26.435Z,29.50
2022-08-17T14:57:56.069Z,29.70
2022-08-17T15:00:24.392Z,30.10
2022-08-17T15:02:54.736Z,30.30
2022-08-17T15:05:24.928Z,30.40
2022-08-17T15:07:53.832Z,30.40
2022-08-17T15:10:25.795Z,30.30
2022-08-17T15:12:54.461Z,30.30
2022-08-17T15:15:24.378Z,30.30
2022-08-17T15:17:52.927Z,30.20
2022-08-17T15:20:23.860Z,29.80
2022-08-17T15:22:55.178Z,29.50
2022-08-17T15:25:24.807Z,29.30
2022-08-17T15:27:54.059Z,29.30
2022-08-17T15:30:23.699Z,29.50
2022-08-17T15:32:55.087Z,29.70
2022-08-17T15:35:27.490Z,29.90
2022-08-17T15:37:58.262Z,30.10
2022-08-17T15:40:26.707Z,30.10
2022-08-17T15:42:54.966Z,30.10
2022-08-17T15:45:26.739Z,29.90
2022-08-17T15:47:55.169Z,29.70
2022-08-17T15:50:23.397Z,29.50
2022-08-17T15:52:56.849Z,29.30
2022-08-17T15:55:25.508Z,29.20
2022-08-17T15:57:53.865Z,28.90
2022-08-17T16:00:23.991Z,28.70
2022-08-17T16:03:44.313Z,28.50
2022-08-17T16:05:42.684Z,28.40
2022-08-17T16:08:11.192Z,28.30
2022-08-17T16:10:39.442Z,28.20
2022-08-17T16:13:17.586Z,28.10
2022-08-17T16:15:51.069Z,28.00
2022-08-17T16:18:30.980Z,27.90
2022-08-17T16:21:19.788Z,27.90
2022-08-17T16:23:49.172Z,27.80
2022-08-17T16:26:18.046Z,27.70
2022-08-17T16:28:46.252Z,27.70
2022-08-17T16:31:14.703Z,27.70
2022-08-17T16:34:15.632Z,27.80
2022-08-17T16:36:33.538Z,27.90
2022-08-17T16:39:02.377Z,27.90
2022-08-17T16:41:45.538Z,28.00
2022-08-17T16:44:15.223Z,28.00
2022-08-17T16:46:45.618Z,28.00
2022-08-17T16:49:29.655Z,28.00
2022-08-17T16:52:06.283Z,28.00
2022-08-17T16:54:35.611Z,28.00
2022-08-17T16:57:05.303Z,28.00
2022-08-17T16:59:41.997Z,28.00
2022-08-17T17:02:15.647Z,27.90
2022-08-17T17:04:51.871Z,27.90
2022-08-17T17:09:59.964Z,27.70
2022-08-17T17:12:59.564Z,27.50
2022-08-17T17:15:22.095Z,27.40
2022-08-17T17:17:52.154Z,27.20
2022-08-17T17:20:26.371Z,27.10
2022-08-17T17:23:04.480Z,26.90
2022-08-17T17:25:37.869Z,26.70
2022-08-17T17:28:14.268Z,26.50
2022-08-17T17:30:50.660Z,26.30
2022-08-17T17:33:23.665Z,26.10
2022-08-17T17:35:59.159Z,26.00
2022-08-17T17:38:32.441Z,25.90
2022-08-17T17:41:04.439Z,25.80
2022-08-17T17:43:41.077Z,25.60
2022-08-17T17:46:27.165Z,25.50
2022-08-17T17:48:56.842Z,25.40
2022-08-17T17:51:58.038Z,25.30
2022-08-17T17:54:49.126Z,25.20
2022-08-17T17:57:30.324Z,25.10
2022-08-17T18:00:07.980Z,25.00
2022-08-17T18:02:51.412Z,24.90
2022-08-17T18:05:49.055Z,24.90
2022-08-17T18:08:34.320Z,24.80
2022-08-17T18:11:24.709Z,24.80
2022-08-17T18:14:14.583Z,24.90
2022-08-17T18:16:43.361Z,24.80
2022-08-17T18:19:14.176Z,24.80
2022-08-17T18:21:46.544Z,24.80
2022-08-17T18:24:16.245Z,24.80
2022-08-17T18:26:55.279Z,24.70
2022-08-17T18:29:42.281Z,24.60
2022-08-17T18:32:33.607Z,24.50
2022-08-17T18:35:27.533Z,24.40
2022-08-17T18:37:58.820Z,24.30
2022-08-17T18:40:38.764Z,24.20
2022-08-17T18:43:12.253Z,24.20
2022-08-17T18:45:45.335Z,24.20
2022-08-17T18:48:23.770Z,24.20
2022-08-17T18:50:53.977Z,24.20
2022-08-17T18:53:34.072Z,24.20
2022-08-17T18:56:27.379Z,24.20
2022-08-17T18:59:21.895Z,24.20
2022-08-17T19:02:09.979Z,24.20
2022-08-17T19:04:44.309Z,24.00
2022-08-17T19:07:26.740Z,23.90
2022-08-17T19:10:00.229Z,23.70
2022-08-17T19:12:38.721Z,23.50
2022-08-17T19:18:43.911Z,23.20
2022-08-17T19:21:20.189Z,23.00
2022-08-17T19:23:54.034Z,22.90
2022-08-17T19:26:54.199Z,22.80
2022-08-17T19:29:41.414Z,22.70
2022-08-17T19:32:30.142Z,22.60
2022-08-17T19:35:27.347Z,22.50
2022-08-17T19:38:25.373Z,22.40
2022-08-17T19:41:08.562Z,22.30
2022-08-17T19:44:10.297Z,22.20
2022-08-17T19:47:00.687Z,22.10
2022-08-17T19:49:46.646Z,21.90
2022-08-17T19:52:44.685Z,21.90
2022-08-17T19:55:21.216Z,21.80
2022-08-17T19:57:59.265Z,21.70
2022-08-17T20:00:28.417Z,21.70
2022-08-17T20:03:06.081Z,21.60
2022-08-17T20:06:08.807Z,21.50
2022-08-17T20:08:30.093Z,21.50
2022-08-17T20:11:02.594Z,21.40
2022-08-17T20:13:36.443Z,21.40
2022-08-17T20:16:06.208Z,21.40
2022-08-17T20:18:50.810Z,21.40
2022-08-17T20:21:22.821Z,21.30
2022-08-17T20:23:54.873Z,21.30
2022-08-17T20:26:27.914Z,21.20
2022-08-17T20:29:39.551Z,21.20
2022-08-17T20:32:26.289Z,21.10
2022-08-17T20:35:19.718Z,21.00
2022-08-17T20:37:54.989Z,20.90
2022-08-17T20:40:35.213Z,20.80
2022-08-17T20:43:37.104Z,20.70
2022-08-17T20:46:25.165Z,20.70
2022-08-17T20:48:56.902Z,20.60
2022-08-17T20:51:31.830Z,20.50
2022-08-17T20:54:07.799Z,20.50
2022-08-17T20:56:51.842Z,20.50
2022-08-17T20:59:55.248Z,20.40
2022-08-17T21:02:25.852Z,20.40
2022-08-17T21:05:23.265Z,20.40
2022-08-17T21:07:59.418Z,20.30
2022-08-17T21:10:36.745Z,20.30
2022-08-17T21:13:39.192Z,20.30
2022-08-17T21:16:25.734Z,20.30
2022-08-17T21:19:03.349Z,20.30
2022-08-17T21:21:41.173Z,20.20
2022-08-17T21:24:26.921Z,20.20
2022-08-17T21:27:05.618Z,20.20
2022-08-17T21:29:40.473Z,20.20
2022-08-17T21:32:19.236Z,20.10
2022-08-17T21:35:30.119Z,20.10
2022-08-17T21:38:04.362Z,20.20
2022-08-17T21:40:35.444Z,20.20
2022-08-17T21:43:18.048Z,20.20
2022-08-17T21:46:00.789Z,20.20
2022-08-17T21:48:31.202Z,20.20
2022-08-17T21:51:04.412Z,20.10
2022-08-17T21:53:39.587Z,20.10
2022-08-17T21:56:11.745Z,20.10
2022-08-17T21:58:46.618Z,20.10
2022-08-17T22:01:26.972Z,20.10
2022-08-17T22:04:05.283Z,20.10
2022-08-17T22:06:39.985Z,20.00
2022-08-17T22:09:19.749Z,19.90
2022-08-17T22:11:58.866Z,19.90
2022-08-17T22:14:52.979Z,19.90
2022-08-17T22:17:21.085Z,19.90
2022-08-17T22:19:52.727Z,19.80
2022-08-17T22:22:34.824Z,19.80
2022-08-17T22:25:07.097Z,19.70
2022-08-17T22:27:56.261Z,19.70
2022-08-17T22:30:32.106Z,19.60
2022-08-17T22:33:03.161Z,19.60
2022-08-17T22:35:40.015Z,19.60
2022-08-17T22:38:29.920Z,19.60
2022-08-17T22:41:32.058Z,19.60
2022-08-17T22:44:18.915Z,19.60
2022-08-17T22:47:06.704Z,19.60
2022-08-17T22:49:54.067Z,19.60
2022-08-17T22:52:34.583Z,19.60
2022-08-17T22:55:26.292Z,19.60
2022-08-17T22:58:11.805Z,19.50
2022-08-17T23:00:44.546Z,19.50
2022-08-17T23:03:18.965Z,19.50
2022-08-17T23:06:02.653Z,19.40
2022-08-17T23:08:31.265Z,19.40
2022-08-17T23:11:00.411Z,19.40
2022-08-17T23:13:28.887Z,19.30
2022-08-17T23:15:58.509Z,19.30
2022-08-17T23:18:27.340Z,19.20
2022-08-17T23:20:55.624Z,19.20
2022-08-17T23:23:23.995Z,19.10
2022-08-17T23:25:52.125Z,19.10
2022-08-17T23:28:21.491Z,19.10
2022-08-17T23:30:53.336Z,19.10
2022-08-17T23:33:29.915Z,19.10
2022-08-17T23:35:58.705Z,19.10
2022-08-17T23:38:27.534Z,19.00
2022-08-17T23:40:56.361Z,18.90
2022-08-17T23:43:25.541Z,18.90
2022-08-17T23:45:57.531Z,18.90
2022-08-17T23:48:32.465Z,18.90
2022-08-17T23:51:08.985Z,18.80
2022-08-17T23:53:44.176Z,18.70
2022-08-17T23:56:13.753Z,18.70
2022-08-17T23:58:44.776Z,18.70
